Time;durP1;ratioP1;P1;durP2;ratioP2;P2;SDS_P1;SDS_P2;PMS_P1;PMS_P2;Temp;Humidity;BMP_temperature;BMP_pressure;BME280_temperature;BME280_humidity;BME280_pressure;Samples;Min_cycle;Max_cycle;Signal;HPM_P1;HPM_P2
2021/12/02 00:00:59;;;;;;;10.48;1.10;;;3.70;99.90;;;;;;5070986;28;20037;-83
2021/12/02 00:03:26;;;;;;;11.52;1.63;;;3.80;99.90;;;;;;5068307;28;20052;-82
2021/12/02 00:05:52;;;;;;;8.80;1.50;;;3.80;99.90;;;;;;5070984;28;20044;-83
2021/12/02 00:08:18;;;;;;;10.55;1.73;;;3.90;99.90;;;;;;5070371;28;20066;-82
2021/12/02 00:10:44;;;;;;;9.25;2.05;;;3.90;99.90;;;;;;5072383;28;20048;-82
2021/12/02 00:13:11;;;;;;;22.02;3.35;;;3.90;99.90;;;;;;5049261;28;20123;-81
2021/12/02 00:21:09;;;;;;;7.20;1.20;;;4.10;99.90;;;;;;5070368;28;20037;-82
2021/12/02 00:23:45;;;;;;;8.73;1.90;;;4.00;99.90;;;;;;5057019;28;20048;-82
2021/12/02 00:26:16;;;;;;;9.20;0.95;;;3.80;99.90;;;;;;5053158;28;20095;-82
2021/12/02 00:28:42;;;;;;;9.07;1.85;;;3.80;99.90;;;;;;5067599;28;20048;-81
2021/12/02 00:31:16;;;;;;;10.70;1.48;;;3.70;99.90;;;;;;5055065;28;20343;-81
2021/12/02 00:33:45;;;;;;;5.07;1.38;;;3.70;99.90;;;;;;5067100;28;20494;-81
2021/12/02 00:36:12;;;;;;;6.15;1.15;;;3.60;99.90;;;;;;5053151;28;20102;-81
2021/12/02 00:38:40;;;;;;;10.32;2.50;;;3.50;99.90;;;;;;5046293;28;20055;-82
2021/12/02 00:41:08;;;;;;;4.00;0.88;;;3.40;99.90;;;;;;5074606;28;20104;-81
2021/12/02 00:43:35;;;;;;;9.25;1.85;;;3.40;99.90;;;;;;5077261;28;20118;-81
2021/12/02 00:46:05;;;;;;;10.55;2.00;;;3.50;99.90;;;;;;5077472;28;20040;-79
2021/12/02 00:48:34;;;;;;;8.45;1.42;;;3.50;99.90;;;;;;5054081;28;20052;-82
2021/12/02 00:50:59;;;;;;;4.40;0.63;;;3.50;99.90;;;;;;5051626;28;20120;-81
2021/12/02 00:53:25;;;;;;;2.08;1.13;;;3.50;99.90;;;;;;5070626;28;20178;-79
2021/12/02 00:55:53;;;;;;;6.97;1.25;;;3.60;99.90;;;;;;5060228;28;20497;-82
2021/12/02 00:58:23;;;;;;;5.88;0.55;;;3.50;99.90;;;;;;5075049;28;20064;-81
2021/12/02 01:00:51;;;;;;;1.70;0.40;;;3.60;99.90;;;;;;5061223;28;20043;-80
2021/12/02 01:03:19;;;;;;;0.82;0.30;;;3.60;99.90;;;;;;5067767;28;20046;-82
2021/12/02 01:05:45;;;;;;;6.35;1.73;;;3.70;99.90;;;;;;5068666;28;20033;-82
2021/12/02 01:08:12;;;;;;;13.05;2.70;;;3.90;99.90;;;;;;5068516;28;20052;-83
2021/12/02 01:10:40;;;;;;;4.55;0.70;;;3.90;99.90;;;;;;5054093;28;20044;-80
2021/12/02 01:13:06;;;;;;;4.60;1.55;;;4.00;99.90;;;;;;5069375;28;20486;-80
2021/12/02 01:15:31;;;;;;;7.43;1.40;;;4.10;99.90;;;;;;5069185;28;20079;-81
2021/12/02 01:17:57;;;;;;;6.38;2.25;;;3.80;99.90;;;;;;5069384;28;20043;-82
2021/12/02 01:20:23;;;;;;;6.32;1.02;;;3.70;99.90;;;;;;5070350;28;20052;-81
2021/12/02 01:22:49;;;;;;;9.93;0.98;;;3.60;99.90;;;;;;5069049;28;20045;-81
2021/12/02 01:25:18;;;;;;;7.93;1.15;;;3.50;99.90;;;;;;5067358;28;20072;-81
2021/12/02 01:27:48;;;;;;;9.10;1.45;;;3.50;99.90;;;;;;5067046;28;20440;-80
2021/12/02 01:30:15;;;;;;;6.40;0.52;;;3.40;99.90;;;;;;5066047;28;20064;-80
2021/12/02 01:32:40;;;;;;;8.93;2.33;;;3.40;99.90;;;;;;5072237;28;20386;-81
2021/12/02 01:35:07;;;;;;;10.30;1.70;;;3.50;99.90;;;;;;5068288;28;20036;-80
2021/12/02 01:37:33;;;;;;;14.35;1.83;;;3.40;99.90;;;;;;5068438;28;20179;-80
2021/12/02 01:39:59;;;;;;;7.75;1.05;;;3.30;99.90;;;;;;5068257;28;20524;-80
2021/12/02 01:42:27;;;;;;;12.40;1.35;;;3.10;99.90;;;;;;5069507;28;20129;-81
2021/12/02 01:44:55;;;;;;;7.47;1.25;;;3.20;99.90;;;;;;5049532;28;20072;-81
2021/12/02 01:47:27;;;;;;;8.73;2.10;;;3.10;99.90;;;;;;5069448;28;20044;-81
2021/12/02 01:49:59;;;;;;;11.45;1.35;;;3.00;99.90;;;;;;5064359;28;20040;-79
2021/12/02 01:52:30;;;;;;;3.08;0.73;;;3.00;99.90;;;;;;5069271;28;20044;-81
2021/12/02 01:55:05;;;;;;;0.88;0.30;;;2.90;99.90;;;;;;5047397;28;20076;-80
2021/12/02 01:57:34;;;;;;;5.53;0.65;;;3.10;99.90;;;;;;5066000;28;20058;-81
2021/12/02 02:00:15;;;;;;;7.13;1.80;;;2.90;99.90;;;;;;5067427;28;20060;-80
2021/12/02 02:02:41;;;;;;;5.20;1.05;;;2.80;99.90;;;;;;5065304;28;20051;-79
2021/12/02 02:05:13;;;;;;;7.07;1.33;;;2.80;99.90;;;;;;5069152;28;20125;-81
2021/12/02 02:07:59;;;;;;;2.50;0.95;;;2.80;99.90;;;;;;5068532;28;20068;-81
2021/12/02 02:10:26;;;;;;;10.15;1.58;;;2.70;99.90;;;;;;5068433;28;20049;-80
2021/12/02 02:12:54;;;;;;;2.13;0.57;;;2.70;99.90;;;;;;5069568;28;20028;-80
2021/12/02 02:15:20;;;;;;;7.97;0.80;;;2.70;99.90;;;;;;5062992;28;20045;-80
2021/12/02 02:17:54;;;;;;;3.28;0.80;;;2.70;99.90;;;;;;5068249;28;20032;-80
2021/12/02 02:20:26;;;;;;;4.10;0.35;;;2.70;99.90;;;;;;5046412;28;20098;-80
2021/12/02 02:22:52;;;;;;;10.57;0.38;;;2.70;99.90;;;;;;5052414;28;20061;-78
2021/12/02 02:25:18;;;;;;;3.97;0.57;;;2.70;99.90;;;;;;5065449;28;20049;-81
2021/12/02 02:27:45;;;;;;;4.80;0.73;;;2.80;99.90;;;;;;5049895;28;20131;-80
2021/12/02 02:30:11;;;;;;;7.35;1.60;;;2.80;99.90;;;;;;5068076;28;20131;-81
2021/12/02 02:32:37;;;;;;;4.63;0.95;;;2.70;99.90;;;;;;5066573;28;20044;-82
2021/12/02 02:35:04;;;;;;;7.50;0.70;;;2.70;99.90;;;;;;5062429;28;20044;-81
2021/12/02 02:37:33;;;;;;;1.65;0.40;;;2.70;99.90;;;;;;5068472;28;20432;-80
2021/12/02 02:40:01;;;;;;;4.70;0.63;;;2.60;99.90;;;;;;5069096;28;20051;-81
2021/12/02 02:42:26;;;;;;;7.05;0.93;;;2.50;99.90;;;;;;5065918;28;20045;-80
2021/12/02 02:44:54;;;;;;;4.38;0.60;;;2.60;99.90;;;;;;5068991;28;20045;-80
2021/12/02 02:47:24;;;;;;;12.90;2.28;;;2.50;99.90;;;;;;5068628;28;20101;-81
2021/12/02 02:49:49;;;;;;;3.47;0.82;;;2.30;99.90;;;;;;5065199;28;20051;-81
2021/12/02 02:52:15;;;;;;;5.68;0.60;;;2.30;99.90;;;;;;5050185;28;20407;-79
2021/12/02 02:54:41;;;;;;;4.15;1.10;;;2.40;99.90;;;;;;5047592;28;20033;-81
2021/12/02 02:57:09;;;;;;;4.93;1.05;;;2.20;99.90;;;;;;5067838;28;20437;-80
2021/12/02 03:00:03;;;;;;;4.53;0.98;;;2.30;99.90;;;;;;5056609;28;20074;-83
2021/12/02 03:05:08;;;;;;;3.92;0.60;;;2.40;99.90;;;;;;5073544;28;20048;-81
2021/12/02 03:07:40;;;;;;;5.68;1.05;;;2.50;99.90;;;;;;5074456;28;20048;-82
2021/12/02 03:12:51;;;;;;;2.65;0.50;;;2.60;99.90;;;;;;5072063;28;20508;-81
2021/12/02 03:17:44;;;;;;;3.05;0.57;;;2.70;99.90;;;;;;5052548;28;20045;-80
2021/12/02 03:20:10;;;;;;;5.13;1.02;;;2.60;99.90;;;;;;5052683;28;20043;-81
2021/12/02 03:22:36;;;;;;;1.85;0.20;;;2.50;99.90;;;;;;5072085;28;20522;-81
2021/12/02 03:25:04;;;;;;;4.90;1.77;;;2.70;99.90;;;;;;5053141;28;20056;-81
2021/12/02 03:27:30;;;;;;;5.57;0.50;;;2.60;99.90;;;;;;5039722;28;20049;-81
2021/12/02 03:29:56;;;;;;;2.35;0.30;;;2.50;99.90;;;;;;5067984;28;20041;-81
2021/12/02 03:32:21;;;;;;;4.05;0.40;;;2.30;99.90;;;;;;5057109;28;20055;-81
2021/12/02 03:34:47;;;;;;;2.67;0.20;;;2.40;99.90;;;;;;5049188;28;20163;-81
2021/12/02 03:37:12;;;;;;;1.35;0.63;;;2.40;99.90;;;;;;5073567;28;20041;-77
2021/12/02 03:39:38;;;;;;;0.88;0.30;;;2.40;99.90;;;;;;5071537;28;20517;-80
2021/12/02 03:42:05;;;;;;;6.28;0.40;;;2.40;99.90;;;;;;5069969;28;20048;-80
2021/12/02 03:44:31;;;;;;;2.50;0.30;;;2.30;99.90;;;;;;5069868;28;20044;-80
2021/12/02 03:46:57;;;;;;;5.82;1.70;;;2.10;99.90;;;;;;5071048;28;20029;-80
2021/12/02 03:49:22;;;;;;;1.85;0.32;;;2.20;99.90;;;;;;5066674;28;20105;-79
2021/12/02 03:51:49;;;;;;;2.70;0.43;;;2.10;99.90;;;;;;5071859;28;20032;-80
2021/12/02 03:54:15;;;;;;;2.88;0.47;;;2.00;99.90;;;;;;5069887;28;20044;-77
2021/12/02 03:56:40;;;;;;;2.08;0.35;;;1.90;99.90;;;;;;5043905;28;20032;-80
2021/12/02 03:59:07;;;;;;;5.05;0.52;;;2.00;99.90;;;;;;5072625;28;20106;-81
2021/12/02 04:01:33;;;;;;;2.20;0.57;;;2.00;99.90;;;;;;5067071;28;20613;-79
2021/12/02 04:03:58;;;;;;;5.00;0.50;;;1.80;99.90;;;;;;5069194;28;20048;-79
2021/12/02 04:06:24;;;;;;;3.15;0.63;;;1.80;99.90;;;;;;5069617;28;20055;-79
2021/12/02 04:08:56;;;;;;;6.03;1.63;;;1.90;99.90;;;;;;5069781;28;20036;-80
2021/12/02 04:16:56;;;;;;;2.85;0.17;;;1.90;99.90;;;;;;5070767;28;20052;-80
2021/12/02 04:19:22;;;;;;;2.10;0.38;;;1.90;99.90;;;;;;5068560;28;20040;-80
2021/12/02 04:21:49;;;;;;;0.65;0.28;;;2.10;99.90;;;;;;5043289;28;20459;-81
2021/12/02 04:24:15;;;;;;;5.28;0.20;;;2.10;99.90;;;;;;5051784;28;20544;-81
2021/12/02 04:26:42;;;;;;;2.80;1.25;;;2.30;99.90;;;;;;5069146;28;20044;-80
2021/12/02 04:29:08;;;;;;;6.43;0.82;;;2.30;99.90;;;;;;5069822;28;20052;-82
2021/12/02 04:31:33;;;;;;;4.32;0.10;;;2.40;99.90;;;;;;5050746;28;20056;-81
2021/12/02 04:33:59;;;;;;;0.80;0.47;;;2.40;99.90;;;;;;5063149;28;20045;-82
2021/12/02 04:36:25;;;;;;;0.57;0.10;;;2.30;99.90;;;;;;5053229;28;20036;-81
2021/12/02 04:38:50;;;;;;;0.70;0.25;;;2.30;99.90;;;;;;5069655;28;20074;-80
2021/12/02 04:41:17;;;;;;;1.35;0.93;;;2.20;99.90;;;;;;5069051;28;20036;-81
2021/12/02 04:43:43;;;;;;;0.40;0.10;;;2.20;99.90;;;;;;5069732;28;20040;-78
2021/12/02 04:46:08;;;;;;;0.98;0.10;;;2.20;99.90;;;;;;5069721;28;20051;-81
2021/12/02 04:48:34;;;;;;;1.10;0.10;;;2.30;99.90;;;;;;5067670;28;20063;-81
2021/12/02 04:51:00;;;;;;;0.00;0.00;;;2.20;99.90;;;;;;5049023;28;20033;-81
2021/12/02 04:53:25;;;;;;;1.90;0.10;;;2.30;99.90;;;;;;5061652;28;20083;-81
2021/12/02 04:55:51;;;;;;;1.42;0.25;;;2.20;99.90;;;;;;5068070;28;20074;-81
2021/12/02 04:58:17;;;;;;;1.75;0.22;;;2.20;99.90;;;;;;5065052;28;20053;-81
2021/12/02 05:00:42;;;;;;;0.70;0.30;;;2.20;99.90;;;;;;5053969;28;20036;-76
2021/12/02 05:03:08;;;;;;;4.93;0.20;;;2.30;99.90;;;;;;5069171;28;20075;-80
2021/12/02 05:05:34;;;;;;;0.57;0.17;;;2.20;99.90;;;;;;5069200;28;20048;-81
2021/12/02 05:08:02;;;;;;;2.83;0.17;;;2.30;99.90;;;;;;5068494;28;20433;-80
2021/12/02 05:10:28;;;;;;;0.30;0.10;;;2.30;99.90;;;;;;5062361;28;20414;-81
2021/12/02 05:12:54;;;;;;;0.45;0.20;;;2.50;99.90;;;;;;5050976;28;20044;-79
2021/12/02 05:15:19;;;;;;;2.80;0.30;;;2.60;99.90;;;;;;5068291;28;20135;-80
2021/12/02 05:17:45;;;;;;;2.05;0.20;;;2.60;99.90;;;;;;5069965;28;20033;-82
2021/12/02 05:20:11;;;;;;;1.45;0.95;;;2.60;99.90;;;;;;5045914;28;20056;-81
2021/12/02 05:22:36;;;;;;;5.78;0.93;;;2.50;99.90;;;;;;5065525;28;20113;-80
2021/12/02 05:25:03;;;;;;;9.77;2.72;;;2.70;99.90;;;;;;5068862;28;20068;-80
2021/12/02 05:27:28;;;;;;;7.25;0.75;;;2.50;99.90;;;;;;5068225;28;20041;-80
2021/12/02 05:29:54;;;;;;;2.10;0.15;;;2.70;99.90;;;;;;5067675;28;20090;-82
2021/12/02 05:32:20;;;;;;;1.23;0.20;;;2.60;99.90;;;;;;5051437;28;20070;-80
2021/12/02 05:34:49;;;;;;;2.63;1.10;;;2.50;99.90;;;;;;5069599;28;20056;-81
2021/12/02 05:37:16;;;;;;;3.25;0.32;;;2.60;99.90;;;;;;5069351;28;20060;-80
2021/12/02 05:39:43;;;;;;;6.78;0.95;;;2.60;99.90;;;;;;5071998;28;20097;-80
2021/12/02 05:42:09;;;;;;;1.30;0.50;;;2.60;99.90;;;;;;5073125;28;20051;-81
2021/12/02 05:44:34;;;;;;;3.55;0.45;;;2.50;99.90;;;;;;5072332;28;20048;-80
2021/12/02 05:47:00;;;;;;;1.30;0.22;;;2.50;99.90;;;;;;5072195;28;20514;-80
2021/12/02 05:49:27;;;;;;;1.95;0.32;;;2.50;99.90;;;;;;5066662;28;20048;-80
2021/12/02 05:51:53;;;;;;;0.80;0.20;;;2.30;99.90;;;;;;5073599;28;20063;-81
2021/12/02 05:54:19;;;;;;;2.15;0.10;;;2.40;99.90;;;;;;5069994;28;20036;-80
2021/12/02 05:56:44;;;;;;;12.30;0.50;;;2.20;99.90;;;;;;5053199;28;20564;-80
2021/12/02 05:59:10;;;;;;;3.72;1.00;;;2.40;99.90;;;;;;5070998;28;20075;-81
2021/12/02 06:01:40;;;;;;;9.35;1.10;;;2.30;99.90;;;;;;5068163;28;20035;-79
2021/12/02 06:04:06;;;;;;;1.23;0.22;;;2.40;99.90;;;;;;5051815;28;20549;-80
2021/12/02 06:06:32;;;;;;;1.40;0.20;;;2.20;99.90;;;;;;5039392;28;20881;-81
2021/12/02 06:08:58;;;;;;;3.78;1.55;;;2.30;99.90;;;;;;5049007;28;20071;-79
2021/12/02 06:11:23;;;;;;;5.25;1.25;;;2.50;99.90;;;;;;5066337;28;20139;-80
2021/12/02 06:13:49;;;;;;;2.10;0.47;;;2.30;99.90;;;;;;5069300;28;20038;-81
2021/12/02 06:16:15;;;;;;;1.25;0.38;;;2.40;99.90;;;;;;5068685;28;20048;-77
2021/12/02 06:18:41;;;;;;;3.38;0.40;;;2.30;99.90;;;;;;5050136;28;20040;-82
2021/12/02 06:21:06;;;;;;;0.95;0.30;;;2.50;99.90;;;;;;5069074;28;20081;-82
2021/12/02 06:23:32;;;;;;;2.80;0.28;;;2.60;99.90;;;;;;5067474;28;20155;-81
2021/12/02 06:25:58;;;;;;;13.55;1.60;;;2.50;99.90;;;;;;5066924;28;20041;-82
2021/12/02 06:28:23;;;;;;;4.85;0.38;;;2.30;99.90;;;;;;5067786;28;20084;-81
2021/12/02 06:30:49;;;;;;;1.30;0.38;;;2.30;99.90;;;;;;5069416;28;20045;-81
2021/12/02 06:33:15;;;;;;;1.80;0.20;;;2.40;99.90;;;;;;5045354;28;20124;-80
2021/12/02 06:35:42;;;;;;;2.65;0.17;;;2.40;99.90;;;;;;5069121;28;20041;-81
2021/12/02 06:38:08;;;;;;;2.35;0.40;;;2.30;99.90;;;;;;5047412;28;20040;-81
2021/12/02 06:40:35;;;;;;;2.83;0.60;;;2.50;99.90;;;;;;5042761;28;20523;-81
2021/12/02 06:43:01;;;;;;;4.57;0.55;;;2.60;99.90;;;;;;5065859;28;20032;-81
2021/12/02 06:45:27;;;;;;;1.20;0.40;;;2.60;99.90;;;;;;5067465;28;20394;-81
2021/12/02 06:47:57;;;;;;;4.07;0.30;;;2.50;99.90;;;;;;5068854;28;20041;-79
2021/12/02 06:50:23;;;;;;;1.75;0.40;;;2.50;99.90;;;;;;5067042;28;20049;-80
2021/12/02 06:52:51;;;;;;;2.85;0.30;;;2.50;99.90;;;;;;5069604;28;20560;-80
2021/12/02 06:55:17;;;;;;;3.30;0.30;;;2.50;99.90;;;;;;5064126;28;20469;-80
2021/12/02 06:57:42;;;;;;;1.75;0.52;;;2.50;99.90;;;;;;5065615;28;20042;-77
2021/12/02 07:00:11;;;;;;;6.10;1.00;;;2.50;99.90;;;;;;5065573;28;20047;-79
2021/12/02 07:02:37;;;;;;;4.13;0.52;;;2.30;99.90;;;;;;5063333;28;20436;-80
2021/12/02 07:05:05;;;;;;;3.17;0.52;;;2.40;99.90;;;;;;5066905;28;20507;-81
2021/12/02 07:07:34;;;;;;;6.32;1.48;;;2.50;99.90;;;;;;5068765;28;20044;-80
2021/12/02 07:10:00;;;;;;;2.38;0.50;;;2.40;99.90;;;;;;5064809;28;20814;-79
2021/12/02 07:12:33;;;;;;;6.22;1.17;;;2.50;99.90;;;;;;5049705;28;20140;-80
2021/12/02 07:15:10;;;;;;;4.20;0.52;;;2.30;99.90;;;;;;5044249;28;20429;-79
2021/12/02 07:17:35;;;;;;;1.95;0.40;;;2.50;99.90;;;;;;5051272;28;20451;-80
2021/12/02 07:20:02;;;;;;;3.55;1.17;;;2.50;99.90;;;;;;5049369;28;20075;-80
2021/12/02 07:22:28;;;;;;;3.50;0.50;;;2.40;99.90;;;;;;5067092;28;20219;-79
2021/12/02 07:24:54;;;;;;;1.75;0.90;;;2.40;99.90;;;;;;5065475;28;20047;-77
2021/12/02 07:27:20;;;;;;;0.85;0.32;;;2.20;99.90;;;;;;5066377;28;20041;-74
2021/12/02 07:29:46;;;;;;;0.73;0.40;;;2.50;99.90;;;;;;5067275;28;20037;-76
2021/12/02 07:32:12;;;;;;;4.80;0.82;;;2.50;99.90;;;;;;5066627;28;20625;-76
2021/12/02 07:34:43;;;;;;;1.40;0.43;;;2.40;99.90;;;;;;5049534;28;20067;-78
2021/12/02 07:37:14;;;;;;;1.27;0.57;;;2.40;99.90;;;;;;5067887;28;20028;-79
2021/12/02 07:39:39;;;;;;;2.97;0.47;;;2.30;99.90;;;;;;5065747;28;20045;-78
2021/12/02 07:42:05;;;;;;;3.83;0.32;;;2.20;99.90;;;;;;5066205;28;20062;-80
2021/12/02 07:44:33;;;;;;;2.15;0.70;;;2.10;99.90;;;;;;5069406;28;20111;-79
2021/12/02 07:47:00;;;;;;;2.53;0.25;;;2.10;99.90;;;;;;5060494;28;20121;-79
2021/12/02 07:49:26;;;;;;;1.42;0.70;;;1.80;99.90;;;;;;5053465;28;20452;-79
2021/12/02 07:51:55;;;;;;;3.78;1.20;;;2.10;99.90;;;;;;5072592;28;20041;-79
2021/12/02 07:54:21;;;;;;;3.00;0.90;;;2.10;99.90;;;;;;5054155;28;20063;-79
2021/12/02 07:56:47;;;;;;;4.68;0.98;;;1.90;99.90;;;;;;5070719;28;20044;-79
2021/12/02 07:59:17;;;;;;;2.85;1.42;;;1.80;99.90;;;;;;5071426;28;20078;-78
2021/12/02 08:01:44;;;;;;;2.17;0.88;;;1.80;99.90;;;;;;5054466;28;20090;-76
2021/12/02 08:04:09;;;;;;;5.47;0.80;;;1.80;99.90;;;;;;5072317;28;20056;-80
2021/12/02 08:06:35;;;;;;;5.35;1.23;;;2.00;99.90;;;;;;5072147;28;20040;-80
2021/12/02 08:09:01;;;;;;;4.43;0.82;;;1.70;99.90;;;;;;5071148;28;20044;-80
2021/12/02 08:11:26;;;;;;;0.88;0.75;;;1.80;99.90;;;;;;5071055;28;20040;-79
2021/12/02 08:13:55;;;;;;;1.48;0.82;;;1.70;99.90;;;;;;5071707;28;20152;-79
2021/12/02 08:16:21;;;;;;;0.95;0.55;;;2.00;99.90;;;;;;5071802;28;20041;-80
2021/12/02 08:18:46;;;;;;;3.72;0.80;;;1.90;99.90;;;;;;5053823;28;20051;-80
2021/12/02 08:21:12;;;;;;;3.13;0.80;;;2.00;99.90;;;;;;5071653;28;20356;-78
2021/12/02 08:23:37;;;;;;;2.83;0.80;;;2.00;99.90;;;;;;5071267;28;20052;-79
2021/12/02 08:26:03;;;;;;;4.43;0.88;;;1.90;99.90;;;;;;5070009;28;20062;-79
2021/12/02 08:28:29;;;;;;;1.23;0.60;;;1.90;99.90;;;;;;5066603;28;20052;-78
2021/12/02 08:30:56;;;;;;;2.47;0.60;;;2.00;99.90;;;;;;5071495;28;20082;-79
2021/12/02 08:33:21;;;;;;;3.65;1.00;;;2.00;99.90;;;;;;5070229;28;20527;-80
2021/12/02 08:35:47;;;;;;;11.68;2.55;;;2.10;99.90;;;;;;5071507;28;20033;-79
2021/12/02 08:38:15;;;;;;;4.93;1.27;;;2.30;99.90;;;;;;5069305;28;20047;-75
2021/12/02 08:40:43;;;;;;;2.83;1.75;;;2.20;99.90;;;;;;5055636;28;20090;-80
2021/12/02 08:43:10;;;;;;;2.45;0.88;;;2.30;99.90;;;;;;5056561;28;20044;-79
2021/12/02 08:45:38;;;;;;;5.07;1.63;;;2.20;99.90;;;;;;5068951;28;20541;-80
2021/12/02 08:48:05;;;;;;;3.35;1.13;;;2.40;99.90;;;;;;5066510;28;20120;-79
2021/12/02 08:50:32;;;;;;;2.63;0.75;;;2.70;99.90;;;;;;5071157;28;20048;-78
2021/12/02 08:52:58;;;;;;;3.00;1.25;;;2.60;99.90;;;;;;5053386;28;20437;-80
2021/12/02 08:55:25;;;;;;;5.03;1.15;;;2.60;99.90;;;;;;5051427;28;20546;-78
2021/12/02 08:57:52;;;;;;;10.57;2.20;;;2.90;99.90;;;;;;5071224;28;20421;-78
2021/12/02 09:00:32;;;;;;;4.50;0.60;;;2.70;99.90;;;;;;5068678;28;20044;-78
2021/12/02 09:02:58;;;;;;;10.27;1.23;;;2.90;99.90;;;;;;5069384;28;20397;-81
2021/12/02 09:05:24;;;;;;;3.28;1.73;;;2.70;99.90;;;;;;5069866;28;20032;-78
2021/12/02 09:07:49;;;;;;;3.63;0.73;;;2.70;99.90;;;;;;5069313;28;20040;-80
2021/12/02 09:10:16;;;;;;;5.13;0.80;;;2.60;99.90;;;;;;5069158;28;20147;-80
2021/12/02 09:12:42;;;;;;;2.63;1.23;;;2.80;99.90;;;;;;5069493;28;20045;-81
2021/12/02 09:15:08;;;;;;;4.32;1.50;;;2.90;99.90;;;;;;5070292;28;20115;-83
2021/12/02 09:17:35;;;;;;;2.00;0.70;;;2.70;99.90;;;;;;5051027;28;20048;-80
2021/12/02 09:20:03;;;;;;;8.32;1.02;;;2.90;99.90;;;;;;5051908;28;20040;-80
2021/12/02 09:22:28;;;;;;;1.30;1.20;;;2.80;99.90;;;;;;5070211;28;20056;-84
2021/12/02 09:24:54;;;;;;;2.42;1.13;;;3.00;99.90;;;;;;5069861;28;20048;-82
2021/12/02 09:27:19;;;;;;;2.78;0.82;;;3.00;99.90;;;;;;5049671;28;20053;-82
2021/12/02 09:29:45;;;;;;;2.08;0.80;;;2.80;99.90;;;;;;5067702;28;20048;-83
2021/12/02 09:32:11;;;;;;;4.60;1.67;;;2.90;99.90;;;;;;5034801;28;20048;-82
2021/12/02 09:34:37;;;;;;;1.75;1.10;;;2.80;99.90;;;;;;5031846;28;20045;-82
2021/12/02 09:37:04;;;;;;;5.18;1.50;;;3.00;99.90;;;;;;5049722;28;20102;-82
2021/12/02 09:39:31;;;;;;;4.47;1.25;;;2.80;99.90;;;;;;5055400;28;20351;-83
2021/12/02 09:41:58;;;;;;;5.53;1.35;;;3.00;99.90;;;;;;5069169;28;20455;-82
2021/12/02 09:44:23;;;;;;;4.30;0.50;;;3.20;99.90;;;;;;5069475;28;20097;-82
2021/12/02 09:46:50;;;;;;;4.63;1.05;;;3.10;99.90;;;;;;5069327;28;20048;-82
2021/12/02 09:49:16;;;;;;;6.30;1.50;;;3.40;99.90;;;;;;5067398;28;20518;-82
2021/12/02 09:54:19;;;;;;;3.42;0.50;;;3.60;99.90;;;;;;5069732;28;20055;-84
2021/12/02 09:56:51;;;;;;;2.92;0.63;;;3.50;99.90;;;;;;5066775;28;20045;-84
2021/12/02 10:02:05;;;;;;;19.20;2.22;;;3.70;99.90;;;;;;5051207;28;20063;-80
2021/12/02 10:04:33;;;;;;;3.45;0.68;;;3.80;99.90;;;;;;5067914;28;20050;-81
2021/12/02 10:07:17;;;;;;;0.93;0.60;;;3.80;99.90;;;;;;5067687;28;20037;-79
2021/12/02 10:12:34;;;;;;;3.33;0.80;;;4.00;99.90;;;;;;5039116;28;20110;-80
2021/12/02 10:15:05;;;;;;;4.63;0.80;;;4.30;99.90;;;;;;5060889;28;20503;-80
2021/12/02 10:17:36;;;;;;;12.63;2.72;;;4.50;99.90;;;;;;5051026;28;20426;-82
2021/12/02 10:22:45;;;;;;;3.83;2.25;;;4.70;99.90;;;;;;5051285;28;20049;-85
2021/12/02 10:25:10;;;;;;;10.27;0.93;;;4.70;99.90;;;;;;5068308;28;20049;-85
2021/12/02 10:27:36;;;;;;;7.65;1.27;;;4.50;99.90;;;;;;5069057;28;20277;-82
2021/12/02 10:30:23;;;;;;;8.38;0.77;;;3.90;99.90;;;;;;5068411;28;20051;-76
2021/12/02 10:32:51;;;;;;;4.75;0.50;;;3.40;99.90;;;;;;5068812;28;20288;-80
2021/12/02 10:35:17;;;;;;;2.78;0.43;;;3.10;99.90;;;;;;5067680;28;20040;-80
2021/12/02 10:37:43;;;;;;;7.00;0.52;;;2.70;99.90;;;;;;5068742;28;20048;-81
2021/12/02 10:40:20;;;;;;;2.50;1.08;;;2.60;99.90;;;;;;5050000;28;20085;-81
2021/12/02 10:42:47;;;;;;;5.15;0.40;;;2.60;99.90;;;;;;5068763;28;20044;-79
2021/12/02 10:45:29;;;;;;;3.83;1.42;;;2.50;99.90;;;;;;5068070;28;20036;-80
2021/12/02 10:47:56;;;;;;;3.10;0.38;;;2.50;99.90;;;;;;5068568;28;20048;-79
2021/12/02 10:50:24;;;;;;;2.10;0.47;;;2.40;99.90;;;;;;5068500;28;20112;-80
2021/12/02 10:52:51;;;;;;;3.65;1.83;;;2.50;99.90;;;;;;5069057;28;20052;-83
2021/12/02 10:55:28;;;;;;;5.25;1.25;;;2.70;99.90;;;;;;5068900;28;20048;-84
2021/12/02 10:57:57;;;;;;;1.67;0.63;;;2.50;99.90;;;;;;5054161;28;20048;-80
2021/12/02 11:00:28;;;;;;;1.75;0.57;;;2.50;99.90;;;;;;5075793;28;20044;-83
2021/12/02 11:02:56;;;;;;;5.47;2.45;;;2.60;99.90;;;;;;5058780;28;20040;-77
2021/12/02 11:05:34;;;;;;;2.35;0.82;;;2.40;99.90;;;;;;5076025;28;20101;-84
2021/12/02 11:08:11;;;;;;;2.33;0.57;;;2.60;99.90;;;;;;5062339;28;20032;-83
2021/12/02 11:10:41;;;;;;;5.75;0.30;;;2.40;99.90;;;;;;5074977;28;20072;-84
2021/12/02 11:13:09;;;;;;;5.43;0.85;;;2.50;99.90;;;;;;5067500;28;20048;-82
2021/12/02 11:15:37;;;;;;;1.40;0.20;;;2.60;99.90;;;;;;5081884;28;20553;-76
2021/12/02 11:18:08;;;;;;;1.90;0.40;;;2.90;99.90;;;;;;5061326;28;20052;-78
2021/12/02 11:20:37;;;;;;;7.93;1.70;;;3.10;99.90;;;;;;5078776;28;20072;-82
2021/12/02 11:23:17;;;;;;;4.00;1.03;;;3.20;99.90;;;;;;5072294;28;20048;-80
2021/12/02 11:25:49;;;;;;;8.40;0.45;;;3.20;99.90;;;;;;5056219;28;20131;-79
2021/12/02 11:28:15;;;;;;;2.40;0.77;;;3.50;99.90;;;;;;5053886;28;20636;-76
2021/12/02 11:30:41;;;;;;;1.65;0.82;;;3.60;99.90;;;;;;5071843;28;20083;-82
2021/12/02 11:33:08;;;;;;;4.15;0.50;;;3.70;99.90;;;;;;5054367;28;20072;-82
2021/12/02 11:35:35;;;;;;;2.22;0.70;;;3.70;99.90;;;;;;5053176;28;20387;-75
2021/12/02 11:38:19;;;;;;;2.33;0.30;;;3.40;99.90;;;;;;5071873;28;20041;-81
2021/12/02 11:40:50;;;;;;;1.10;0.30;;;3.40;99.90;;;;;;5070054;28;20041;-79
2021/12/02 11:43:24;;;;;;;3.90;0.50;;;3.60;99.90;;;;;;5070008;28;20068;-81
2021/12/02 11:45:51;;;;;;;1.55;0.80;;;3.40;99.90;;;;;;5072331;28;20060;-81
2021/12/02 11:48:22;;;;;;;1.20;0.35;;;3.10;99.90;;;;;;5071246;28;20052;-75
2021/12/02 11:50:51;;;;;;;0.90;0.57;;;2.90;99.90;;;;;;5070575;28;20068;-80
2021/12/02 11:53:22;;;;;;;2.97;0.85;;;2.60;99.90;;;;;;5070845;28;20037;-81
2021/12/02 11:55:54;;;;;;;6.65;2.10;;;2.40;99.90;;;;;;5049891;28;20052;-79
2021/12/02 11:58:20;;;;;;;5.45;1.63;;;2.40;99.90;;;;;;5055668;28;20044;-81
2021/12/02 12:00:47;;;;;;;3.33;0.60;;;2.40;99.90;;;;;;5071898;28;20041;-77
2021/12/02 12:03:29;;;;;;;3.72;0.82;;;2.20;99.90;;;;;;5071621;28;20044;-74
2021/12/02 12:06:10;;;;;;;2.63;1.15;;;2.50;99.90;;;;;;5071549;28;20438;-77
2021/12/02 12:08:38;;;;;;;4.43;0.47;;;2.50;99.90;;;;;;5049751;28;20135;-78
2021/12/02 12:11:32;;;;;;;1.48;0.40;;;2.40;99.90;;;;;;5070665;28;20047;-80
2021/12/02 12:14:08;;;;;;;1.40;0.50;;;2.60;99.90;;;;;;5053465;28;20047;-77
2021/12/02 12:16:35;;;;;;;2.85;0.35;;;2.60;99.90;;;;;;5071230;28;20036;-74
2021/12/02 12:19:21;;;;;;;2.95;1.10;;;2.70;99.90;;;;;;5071206;28;20139;-75
2021/12/02 12:22:07;;;;;;;0.57;0.30;;;2.70;99.90;;;;;;5071228;28;20058;-76
2021/12/02 12:24:54;;;;;;;3.30;0.47;;;2.60;99.90;;;;;;5067684;28;20501;-74
2021/12/02 12:27:26;;;;;;;0.15;0.10;;;2.80;99.90;;;;;;5071087;28;20048;-74
2021/12/02 12:30:01;;;;;;;2.63;0.25;;;2.80;99.90;;;;;;5069705;28;20064;-76
2021/12/02 12:32:43;;;;;;;1.10;0.57;;;2.80;99.90;;;;;;5070963;28;20091;-76
2021/12/02 12:35:24;;;;;;;4.47;1.45;;;3.00;99.90;;;;;;5070769;28;20118;-75
2021/12/02 12:37:53;;;;;;;0.95;0.20;;;3.20;99.90;;;;;;5070874;28;20036;-75
2021/12/02 12:40:25;;;;;;;0.77;0.20;;;3.20;99.90;;;;;;5063370;28;20582;-74
2021/12/02 12:43:02;;;;;;;1.10;0.40;;;3.40;99.90;;;;;;5071263;28;20043;-73
2021/12/02 12:45:37;;;;;;;2.25;0.75;;;3.30;99.90;;;;;;5070513;28;20048;-75
2021/12/02 12:48:06;;;;;;;1.42;0.60;;;3.20;99.90;;;;;;5070223;28;20044;-74
2021/12/02 12:50:36;;;;;;;1.63;0.20;;;3.30;99.90;;;;;;5070180;28;20512;-74
2021/12/02 12:53:05;;;;;;;;;;;3.30;99.90;;;;;;5070406;28;20045;-75
2021/12/02 12:55:54;;;;;;;0.43;0.13;;;3.30;99.90;;;;;;5069594;28;19916;-75
2021/12/02 12:58:23;;;;;;;1.90;0.20;;;3.30;99.90;;;;;;5068991;28;20137;-78
2021/12/02 13:00:52;;;;;;;0.47;0.20;;;3.30;99.90;;;;;;5070468;28;20040;-77
2021/12/02 13:03:25;;;;;;;4.57;0.40;;;3.40;99.90;;;;;;5069205;28;20482;-77
2021/12/02 13:06:00;;;;;;;3.22;0.50;;;3.60;99.90;;;;;;5070765;28;20441;-78
2021/12/02 13:08:30;;;;;;;2.92;0.63;;;3.60;99.90;;;;;;5069787;28;20090;-78
2021/12/02 13:11:02;;;;;;;0.95;0.17;;;3.60;99.90;;;;;;5069716;28;20040;-76
2021/12/02 13:13:31;;;;;;;3.85;0.38;;;3.60;99.90;;;;;;5052221;28;20386;-77
2021/12/02 13:16:21;;;;;;;0.60;0.15;;;3.40;99.90;;;;;;5069633;28;20044;-76
2021/12/02 13:18:52;;;;;;;;;;;3.10;99.90;;;;;;5070628;28;20045;-76
2021/12/02 13:21:30;;;;;;;4.07;0.17;;;3.20;99.90;;;;;;5069794;28;19974;-78
2021/12/02 13:24:05;;;;;;;2.83;0.40;;;3.30;99.90;;;;;;5067262;28;20067;-79
2021/12/02 13:26:40;;;;;;;2.95;0.65;;;3.30;99.90;;;;;;5068523;28;20044;-79
2021/12/02 13:29:10;;;;;;;1.95;0.93;;;3.30;99.90;;;;;;5050588;28;20036;-78
2021/12/02 13:31:36;;;;;;;;;;;3.20;99.90;;;;;;5052072;28;20396;-78
2021/12/02 13:34:06;;;;;;;4.93;0.75;;;3.00;99.90;;;;;;5069462;28;19916;-78